Terminal Aerodrome Forecast
Issued by NWS Jackson, MS

Home | Current Version | Previous Version | Text Only | Print | Product List | Glossary On
Versions: 1 2 3 4 5 6 7 8 9 10 11 12 13
000
FTUS44 KJAN 291120
TAFMEI
TAF
KMEI 291120Z 2912/3012 09007KT P6SM OVC030
     FM291500 14011KT P6SM SCT035 OVC060
     FM291700 17011G17KT P6SM SCT050 BKN250
     FM300100 18008KT P6SM SCT015 OVC050
     FM300600 20006KT P6SM OVC015=

USA.gov is the U.S. government's official web portal to all federal, state and local government web resources and services.